TAF GEML
GEML 081700Z 0818/0918 29018KT CAVOK TX19/0913Z TN15/0906Z TEMPO 0818/0907 28018G30KT=
METAR GEML
GEML 082100Z AUTO 27017G28KT 230V320 CAVOK 15/08 Q1022=
GEML 082030Z AUTO 27018G34KT 230V320 CAVOK 15/07 Q1021=
GEML 082000Z AUTO 28019G31KT 240V320 CAVOK 15/07 Q1021=
GEML 081930Z AUTO 27017G29KT 230V300 CAVOK 15/08 Q1021=
GEML 081900Z 27019G33KT 230V310 9999 SCT030 BKN050 16/09 Q1021=
WC GEML
WS GEML
WV GEML